Main page
METAR-TAF:

METAR-TAF

Airports :

Rochelle Municipal Airport (Koritz Field)

Rochelle, Illinois, United States

latitude: 41-53-35N, longitude: 089-04-42W, elevation: 781 ft

Current weather observation

The report was made 20 minutes ago, at 16:35 UTC
Wind 13 mph from the South/Southwest
Temperature 73°F
Humidity 78%
Pressure 29.86 in. Hg
Visibility: 10 miles
Broken clouds at a height of 2200 ft
Broken clouds at a height of 2800 ft

METAR: KRPJ 281635Z AUTO 21011KT 10SM BKN022 BKN028 23/19 A2986 RMK AO2 T02330194

Time: 11:55 (16:55 UTC)


TAF: missing

Weather observations and forecasts of more than 4000 airports (METAR and TAF reports).

The available stations are represented by yellow and red dots on the map.

Hover mouse over dot to see the name of the station.

Then click to see weather observations and forecasts.

To change the map : click on the green buttons with a black cross to zoom in, on the green button with a dash to zoom out, or on the green arrows for adjacent maps.


METAR-TAF: